sensor_id;sensor_type;location;lat;lon;timestamp;temperature;humidity
28614;DHT22;15806;53.548;9.964;2022-12-08T00:00:29;18.50;99.90
28614;DHT22;15806;53.548;9.964;2022-12-08T00:02:10;18.40;99.90
28614;DHT22;15806;53.548;9.964;2022-12-08T00:03:50;18.40;99.90
28614;DHT22;15806;53.548;9.964;2022-12-08T00:05:31;19.50;99.90
28614;DHT22;15806;53.548;9.964;2022-12-08T00:07:12;18.40;99.90
28614;DHT22;15806;53.548;9.964;2022-12-08T00:08:52;19.20;99.90
28614;DHT22;15806;53.548;9.964;2022-12-08T00:10:33;18.80;99.90
28614;DHT22;15806;53.548;9.964;2022-12-08T00:12:16;19.20;99.90
28614;DHT22;15806;53.548;9.964;2022-12-08T00:13:57;19.60;99.90
28614;DHT22;15806;53.548;9.964;2022-12-08T00:15:38;19.60;99.90
28614;DHT22;15806;53.548;9.964;2022-12-08T00:17:18;18.80;99.90
28614;DHT22;15806;53.548;9.964;2022-12-08T00:19:02;19.60;99.90
28614;DHT22;15806;53.548;9.964;2022-12-08T00:20:43;18.50;99.90
28614;DHT22;15806;53.548;9.964;2022-12-08T00:22:23;19.10;99.90
28614;DHT22;15806;53.548;9.964;2022-12-08T00:24:04;18.90;99.90
28614;DHT22;15806;53.548;9.964;2022-12-08T00:25:44;18.70;99.90
28614;DHT22;15806;53.548;9.964;2022-12-08T00:27:25;19.80;99.90
28614;DHT22;15806;53.548;9.964;2022-12-08T00:29:06;18.80;99.90
28614;DHT22;15806;53.548;9.964;2022-12-08T00:30:47;19.70;99.90
28614;DHT22;15806;53.548;9.964;2022-12-08T00:32:27;19.30;99.90
28614;DHT22;15806;53.548;9.964;2022-12-08T00:34:08;19.80;99.90
28614;DHT22;15806;53.548;9.964;2022-12-08T00:35:48;19.90;99.90
28614;DHT22;15806;53.548;9.964;2022-12-08T00:37:29;18.80;99.90
28614;DHT22;15806;53.548;9.964;2022-12-08T00:39:11;19.30;99.90
28614;DHT22;15806;53.548;9.964;2022-12-08T00:40:52;18.90;99.90
28614;DHT22;15806;53.548;9.964;2022-12-08T00:42:33;19.00;99.90
28614;DHT22;15806;53.548;9.964;2022-12-08T00:44:16;18.80;99.90
28614;DHT22;15806;53.548;9.964;2022-12-08T00:45:56;18.90;99.90
28614;DHT22;15806;53.548;9.964;2022-12-08T00:47:37;19.90;99.90
28614;DHT22;15806;53.548;9.964;2022-12-08T00:49:18;19.40;99.90
28614;DHT22;15806;53.548;9.964;2022-12-08T00:52:58;19.50;99.90
28614;DHT22;15806;53.548;9.964;2022-12-08T00:54:39;19.70;99.90
28614;DHT22;15806;53.548;9.964;2022-12-08T00:56:19;19.20;99.90
28614;DHT22;15806;53.548;9.964;2022-12-08T00:58:00;19.70;99.90
28614;DHT22;15806;53.548;9.964;2022-12-08T00:59:40;18.80;99.90
28614;DHT22;15806;53.548;9.964;2022-12-08T01:01:21;19.70;99.90
28614;DHT22;15806;53.548;9.964;2022-12-08T01:03:03;18.80;99.90
28614;DHT22;15806;53.548;9.964;2022-12-08T01:04:43;18.50;99.90
28614;DHT22;15806;53.548;9.964;2022-12-08T01:06:24;18.90;99.90
28614;DHT22;15806;53.548;9.964;2022-12-08T01:08:05;18.70;99.90
28614;DHT22;15806;53.548;9.964;2022-12-08T01:09:46;18.60;99.90
28614;DHT22;15806;53.548;9.964;2022-12-08T01:11:26;19.40;99.90
28614;DHT22;15806;53.548;9.964;2022-12-08T01:13:07;19.70;99.90
28614;DHT22;15806;53.548;9.964;2022-12-08T01:14:48;18.50;99.90
28614;DHT22;15806;53.548;9.964;2022-12-08T01:16:31;19.00;99.90
28614;DHT22;15806;53.548;9.964;2022-12-08T01:18:12;19.60;99.90
28614;DHT22;15806;53.548;9.964;2022-12-08T01:19:52;18.50;99.90
28614;DHT22;15806;53.548;9.964;2022-12-08T01:21:33;19.50;99.90
28614;DHT22;15806;53.548;9.964;2022-12-08T01:23:14;19.50;99.90
28614;DHT22;15806;53.548;9.964;2022-12-08T01:24:54;19.20;99.90
28614;DHT22;15806;53.548;9.964;2022-12-08T01:26:35;19.30;99.90
28614;DHT22;15806;53.548;9.964;2022-12-08T01:28:15;19.30;99.90
28614;DHT22;15806;53.548;9.964;2022-12-08T01:29:56;19.50;99.90
28614;DHT22;15806;53.548;9.964;2022-12-08T01:31:37;19.30;99.90
28614;DHT22;15806;53.548;9.964;2022-12-08T01:33:18;18.60;99.90
28614;DHT22;15806;53.548;9.964;2022-12-08T01:34:59;19.70;99.90
28614;DHT22;15806;53.548;9.964;2022-12-08T01:36:40;19.50;99.90
28614;DHT22;15806;53.548;9.964;2022-12-08T01:38:21;19.80;99.90
28614;DHT22;15806;53.548;9.964;2022-12-08T01:40:02;18.70;99.90
28614;DHT22;15806;53.548;9.964;2022-12-08T01:41:43;19.50;99.90
28614;DHT22;15806;53.548;9.964;2022-12-08T01:43:24;19.50;99.90
28614;DHT22;15806;53.548;9.964;2022-12-08T01:45:26;19.30;99.90
28614;DHT22;15806;53.548;9.964;2022-12-08T01:47:10;19.20;99.90
28614;DHT22;15806;53.548;9.964;2022-12-08T01:48:59;19.10;99.90
28614;DHT22;15806;53.548;9.964;2022-12-08T01:50:46;18.70;99.90
28614;DHT22;15806;53.548;9.964;2022-12-08T01:52:39;19.00;99.90
28614;DHT22;15806;53.548;9.964;2022-12-08T01:54:25;18.80;99.90
28614;DHT22;15806;53.548;9.964;2022-12-08T01:56:15;19.30;99.90
28614;DHT22;15806;53.548;9.964;2022-12-08T01:58:02;18.10;99.90
28614;DHT22;15806;53.548;9.964;2022-12-08T01:59:48;18.00;99.90
28614;DHT22;15806;53.548;9.964;2022-12-08T02:01:30;18.00;99.90
28614;DHT22;15806;53.548;9.964;2022-12-08T02:03:22;17.80;99.90
28614;DHT22;15806;53.548;9.964;2022-12-08T02:05:11;17.60;99.90
28614;DHT22;15806;53.548;9.964;2022-12-08T02:07:32;18.10;99.90
28614;DHT22;15806;53.548;9.964;2022-12-08T02:09:14;18.10;99.90
28614;DHT22;15806;53.548;9.964;2022-12-08T02:10:58;17.10;99.90
28614;DHT22;15806;53.548;9.964;2022-12-08T02:12:38;17.20;99.90
28614;DHT22;15806;53.548;9.964;2022-12-08T02:14:19;17.20;99.90
28614;DHT22;15806;53.548;9.964;2022-12-08T02:33:45;18.10;99.90
28614;DHT22;15806;53.548;9.964;2022-12-08T02:35:56;18.80;99.90
28614;DHT22;15806;53.548;9.964;2022-12-08T02:38:10;18.40;99.90
28614;DHT22;15806;53.548;9.964;2022-12-08T02:41:52;19.10;99.90
28614;DHT22;15806;53.548;9.964;2022-12-08T02:43:50;19.30;99.90
28614;DHT22;15806;53.548;9.964;2022-12-08T02:45:43;19.30;99.90
28614;DHT22;15806;53.548;9.964;2022-12-08T02:47:25;19.20;99.90
28614;DHT22;15806;53.548;9.964;2022-12-08T02:49:11;19.20;99.90
28614;DHT22;15806;53.548;9.964;2022-12-08T02:50:52;19.30;99.90
28614;DHT22;15806;53.548;9.964;2022-12-08T02:54:14;18.90;99.90
28614;DHT22;15806;53.548;9.964;2022-12-08T03:00:22;18.90;99.90
28614;DHT22;15806;53.548;9.964;2022-12-08T03:04:50;18.80;99.90
28614;DHT22;15806;53.548;9.964;2022-12-08T03:08:49;18.60;99.90
28614;DHT22;15806;53.548;9.964;2022-12-08T03:10:38;19.50;99.90
28614;DHT22;15806;53.548;9.964;2022-12-08T03:12:41;19.20;99.90
28614;DHT22;15806;53.548;9.964;2022-12-08T03:14:23;19.10;99.90
28614;DHT22;15806;53.548;9.964;2022-12-08T03:16:07;18.40;99.90
28614;DHT22;15806;53.548;9.964;2022-12-08T03:17:52;19.10;99.90
28614;DHT22;15806;53.548;9.964;2022-12-08T03:19:37;19.30;99.90
28614;DHT22;15806;53.548;9.964;2022-12-08T03:21:19;19.30;99.90
28614;DHT22;15806;53.548;9.964;2022-12-08T03:23:04;18.90;99.90
28614;DHT22;15806;53.548;9.964;2022-12-08T03:24:48;19.20;99.90
28614;DHT22;15806;53.548;9.964;2022-12-08T03:26:41;19.20;99.90
28614;DHT22;15806;53.548;9.964;2022-12-08T03:28:23;19.20;99.90
28614;DHT22;15806;53.548;9.964;2022-12-08T03:30:05;19.00;99.90
28614;DHT22;15806;53.548;9.964;2022-12-08T03:31:53;19.10;99.90
28614;DHT22;15806;53.548;9.964;2022-12-08T03:33:38;18.80;99.90
28614;DHT22;15806;53.548;9.964;2022-12-08T03:35:24;18.30;99.90
28614;DHT22;15806;53.548;9.964;2022-12-08T03:37:05;18.40;99.90
28614;DHT22;15806;53.548;9.964;2022-12-08T03:38:50;18.80;99.90
28614;DHT22;15806;53.548;9.964;2022-12-08T03:40:31;18.10;99.90
28614;DHT22;15806;53.548;9.964;2022-12-08T03:42:11;18.70;99.90
28614;DHT22;15806;53.548;9.964;2022-12-08T03:43:56;18.70;99.90
28614;DHT22;15806;53.548;9.964;2022-12-08T03:45:37;18.60;99.90
28614;DHT22;15806;53.548;9.964;2022-12-08T03:47:18;18.60;99.90
28614;DHT22;15806;53.548;9.964;2022-12-08T03:48:58;18.70;99.90
28614;DHT22;15806;53.548;9.964;2022-12-08T03:50:39;18.00;99.90
28614;DHT22;15806;53.548;9.964;2022-12-08T03:52:20;17.90;99.90
28614;DHT22;15806;53.548;9.964;2022-12-08T03:54:00;17.90;99.90
28614;DHT22;15806;53.548;9.964;2022-12-08T03:55:41;18.00;99.90
28614;DHT22;15806;53.548;9.964;2022-12-08T03:57:22;18.20;99.90
28614;DHT22;15806;53.548;9.964;2022-12-08T03:59:03;18.00;99.90
28614;DHT22;15806;53.548;9.964;2022-12-08T04:00:44;18.40;99.90
28614;DHT22;15806;53.548;9.964;2022-12-08T04:02:24;18.20;99.90
28614;DHT22;15806;53.548;9.964;2022-12-08T04:04:07;17.90;99.90
28614;DHT22;15806;53.548;9.964;2022-12-08T04:05:48;17.70;99.90
28614;DHT22;15806;53.548;9.964;2022-12-08T04:07:29;18.20;99.90
28614;DHT22;15806;53.548;9.964;2022-12-08T04:09:10;18.10;99.90
28614;DHT22;15806;53.548;9.964;2022-12-08T04:10:50;18.00;99.90
28614;DHT22;15806;53.548;9.964;2022-12-08T04:12:31;17.70;99.90
28614;DHT22;15806;53.548;9.964;2022-12-08T04:14:12;17.70;99.90
28614;DHT22;15806;53.548;9.964;2022-12-08T04:15:52;17.60;99.90
28614;DHT22;15806;53.548;9.964;2022-12-08T04:17:33;17.70;99.90
28614;DHT22;15806;53.548;9.964;2022-12-08T04:19:14;18.10;99.90
28614;DHT22;15806;53.548;9.964;2022-12-08T04:20:54;18.00;99.90
28614;DHT22;15806;53.548;9.964;2022-12-08T04:22:35;18.00;99.90
28614;DHT22;15806;53.548;9.964;2022-12-08T04:24:16;17.70;99.90
28614;DHT22;15806;53.548;9.964;2022-12-08T04:25:56;17.40;99.90
28614;DHT22;15806;53.548;9.964;2022-12-08T04:27:37;17.50;99.90
28614;DHT22;15806;53.548;9.964;2022-12-08T04:29:17;17.50;99.90
28614;DHT22;15806;53.548;9.964;2022-12-08T04:30:58;17.70;99.90
28614;DHT22;15806;53.548;9.964;2022-12-08T04:32:39;17.70;99.90
28614;DHT22;15806;53.548;9.964;2022-12-08T04:34:19;17.50;99.90
28614;DHT22;15806;53.548;9.964;2022-12-08T04:36:01;17.60;99.90
28614;DHT22;15806;53.548;9.964;2022-12-08T04:37:42;17.30;99.90
28614;DHT22;15806;53.548;9.964;2022-12-08T04:39:23;17.40;99.90
28614;DHT22;15806;53.548;9.964;2022-12-08T04:41:03;17.20;99.90
28614;DHT22;15806;53.548;9.964;2022-12-08T04:42:44;17.30;99.90
28614;DHT22;15806;53.548;9.964;2022-12-08T04:44:24;17.50;99.90
28614;DHT22;15806;53.548;9.964;2022-12-08T04:46:06;17.30;99.90
28614;DHT22;15806;53.548;9.964;2022-12-08T04:47:47;17.30;99.90
28614;DHT22;15806;53.548;9.964;2022-12-08T04:49:28;17.10;99.90
28614;DHT22;15806;53.548;9.964;2022-12-08T04:51:19;17.10;99.90
28614;DHT22;15806;53.548;9.964;2022-12-08T04:53:00;17.20;99.90
28614;DHT22;15806;53.548;9.964;2022-12-08T04:54:41;17.30;99.90
28614;DHT22;15806;53.548;9.964;2022-12-08T04:56:22;16.90;99.90
28614;DHT22;15806;53.548;9.964;2022-12-08T04:58:02;16.90;99.90
28614;DHT22;15806;53.548;9.964;2022-12-08T04:59:43;17.30;99.90
28614;DHT22;15806;53.548;9.964;2022-12-08T05:01:23;16.90;99.90
28614;DHT22;15806;53.548;9.964;2022-12-08T05:03:04;17.20;99.90
28614;DHT22;15806;53.548;9.964;2022-12-08T05:04:44;17.00;99.90
28614;DHT22;15806;53.548;9.964;2022-12-08T05:06:25;16.80;99.90
28614;DHT22;15806;53.548;9.964;2022-12-08T05:08:07;17.10;99.90
28614;DHT22;15806;53.548;9.964;2022-12-08T05:09:48;17.10;99.90
28614;DHT22;15806;53.548;9.964;2022-12-08T05:11:29;17.20;99.90
28614;DHT22;15806;53.548;9.964;2022-12-08T05:13:09;17.10;99.90
28614;DHT22;15806;53.548;9.964;2022-12-08T05:14:50;17.00;99.90
28614;DHT22;15806;53.548;9.964;2022-12-08T05:16:30;17.00;99.90
28614;DHT22;15806;53.548;9.964;2022-12-08T05:18:11;17.10;99.90
28614;DHT22;15806;53.548;9.964;2022-12-08T05:19:51;16.80;99.90
28614;DHT22;15806;53.548;9.964;2022-12-08T05:21:32;17.00;99.90
28614;DHT22;15806;53.548;9.964;2022-12-08T05:23:13;16.90;99.90
28614;DHT22;15806;53.548;9.964;2022-12-08T05:24:53;16.70;99.90
28614;DHT22;15806;53.548;9.964;2022-12-08T05:26:34;16.70;99.90
28614;DHT22;15806;53.548;9.964;2022-12-08T05:28:15;16.60;99.90
28614;DHT22;15806;53.548;9.964;2022-12-08T05:29:55;17.10;99.90
28614;DHT22;15806;53.548;9.964;2022-12-08T05:31:36;16.90;99.90
28614;DHT22;15806;53.548;9.964;2022-12-08T05:33:16;16.70;99.90
28614;DHT22;15806;53.548;9.964;2022-12-08T05:34:57;16.70;99.90
28614;DHT22;15806;53.548;9.964;2022-12-08T05:36:37;16.70;99.90
28614;DHT22;15806;53.548;9.964;2022-12-08T05:38:18;16.60;99.90
28614;DHT22;15806;53.548;9.964;2022-12-08T05:39:58;16.80;99.90
28614;DHT22;15806;53.548;9.964;2022-12-08T05:41:40;16.70;99.90
28614;DHT22;15806;53.548;9.964;2022-12-08T05:43:20;16.80;99.90
28614;DHT22;15806;53.548;9.964;2022-12-08T05:45:01;16.70;99.90
28614;DHT22;15806;53.548;9.964;2022-12-08T05:46:41;16.60;99.90
28614;DHT22;15806;53.548;9.964;2022-12-08T05:48:22;16.90;99.90
28614;DHT22;15806;53.548;9.964;2022-12-08T05:50:03;16.70;99.90
28614;DHT22;15806;53.548;9.964;2022-12-08T05:51:44;16.60;99.90
28614;DHT22;15806;53.548;9.964;2022-12-08T05:53:25;16.70;99.90
28614;DHT22;15806;53.548;9.964;2022-12-08T05:55:05;16.50;99.90
28614;DHT22;15806;53.548;9.964;2022-12-08T05:56:46;16.90;99.90
28614;DHT22;15806;53.548;9.964;2022-12-08T05:58:27;16.80;99.90
28614;DHT22;15806;53.548;9.964;2022-12-08T06:00:08;16.80;99.90
28614;DHT22;15806;53.548;9.964;2022-12-08T06:01:48;16.80;99.90
28614;DHT22;15806;53.548;9.964;2022-12-08T06:03:29;16.90;99.90
28614;DHT22;15806;53.548;9.964;2022-12-08T06:05:09;16.90;99.90
28614;DHT22;15806;53.548;9.964;2022-12-08T06:06:50;16.90;99.90
28614;DHT22;15806;53.548;9.964;2022-12-08T06:08:30;16.70;99.90
28614;DHT22;15806;53.548;9.964;2022-12-08T06:10:11;16.60;99.90
28614;DHT22;15806;53.548;9.964;2022-12-08T06:11:52;16.50;99.90
28614;DHT22;15806;53.548;9.964;2022-12-08T06:13:32;16.80;99.90
28614;DHT22;15806;53.548;9.964;2022-12-08T06:15:13;16.50;99.90
28614;DHT22;15806;53.548;9.964;2022-12-08T06:16:53;16.50;99.90
28614;DHT22;15806;53.548;9.964;2022-12-08T06:18:34;16.60;99.90
28614;DHT22;15806;53.548;9.964;2022-12-08T06:20:17;16.60;99.90
28614;DHT22;15806;53.548;9.964;2022-12-08T06:21:58;16.80;99.90
28614;DHT22;15806;53.548;9.964;2022-12-08T06:23:39;16.80;99.90
28614;DHT22;15806;53.548;9.964;2022-12-08T06:25:20;16.50;99.90
28614;DHT22;15806;53.548;9.964;2022-12-08T06:27:00;16.60;99.90
28614;DHT22;15806;53.548;9.964;2022-12-08T06:28:41;16.70;99.90
28614;DHT22;15806;53.548;9.964;2022-12-08T06:30:22;16.50;99.90
28614;DHT22;15806;53.548;9.964;2022-12-08T06:32:03;16.30;99.90
28614;DHT22;15806;53.548;9.964;2022-12-08T06:33:44;16.60;99.90
28614;DHT22;15806;53.548;9.964;2022-12-08T06:35:24;16.50;99.90
28614;DHT22;15806;53.548;9.964;2022-12-08T06:37:05;16.60;99.90
28614;DHT22;15806;53.548;9.964;2022-12-08T06:38:46;16.60;99.90
28614;DHT22;15806;53.548;9.964;2022-12-08T06:40:27;16.50;99.90
28614;DHT22;15806;53.548;9.964;2022-12-08T06:42:07;16.30;99.90
28614;DHT22;15806;53.548;9.964;2022-12-08T06:43:48;16.30;99.90
28614;DHT22;15806;53.548;9.964;2022-12-08T06:45:28;16.70;99.90
28614;DHT22;15806;53.548;9.964;2022-12-08T06:47:09;16.30;99.90
28614;DHT22;15806;53.548;9.964;2022-12-08T06:48:49;16.40;99.90
28614;DHT22;15806;53.548;9.964;2022-12-08T06:50:30;16.20;99.90
28614;DHT22;15806;53.548;9.964;2022-12-08T06:52:10;16.40;99.90
28614;DHT22;15806;53.548;9.964;2022-12-08T06:53:51;16.50;99.90
28614;DHT22;15806;53.548;9.964;2022-12-08T06:55:32;16.90;99.90
28614;DHT22;15806;53.548;9.964;2022-12-08T06:57:13;16.50;99.90
28614;DHT22;15806;53.548;9.964;2022-12-08T06:58:53;16.90;99.90
28614;DHT22;15806;53.548;9.964;2022-12-08T07:00:34;16.80;99.90
28614;DHT22;15806;53.548;9.964;2022-12-08T07:02:15;16.80;99.90
28614;DHT22;15806;53.548;9.964;2022-12-08T07:03:55;17.80;99.90
28614;DHT22;15806;53.548;9.964;2022-12-08T07:05:36;17.70;99.90
28614;DHT22;15806;53.548;9.964;2022-12-08T07:07:17;17.40;99.90
28614;DHT22;15806;53.548;9.964;2022-12-08T07:08:58;17.80;99.90
28614;DHT22;15806;53.548;9.964;2022-12-08T07:10:38;17.30;99.90
28614;DHT22;15806;53.548;9.964;2022-12-08T07:12:19;18.10;99.90
28614;DHT22;15806;53.548;9.964;2022-12-08T07:13:59;17.90;99.90
28614;DHT22;15806;53.548;9.964;2022-12-08T07:15:41;17.50;99.90
28614;DHT22;15806;53.548;9.964;2022-12-08T07:17:22;18.30;99.90
28614;DHT22;15806;53.548;9.964;2022-12-08T07:19:02;17.70;99.90
28614;DHT22;15806;53.548;9.964;2022-12-08T07:20:43;17.40;99.90
28614;DHT22;15806;53.548;9.964;2022-12-08T07:22:23;17.60;99.90
28614;DHT22;15806;53.548;9.964;2022-12-08T07:24:04;17.60;99.90
28614;DHT22;15806;53.548;9.964;2022-12-08T07:25:45;17.70;99.90
28614;DHT22;15806;53.548;9.964;2022-12-08T07:27:25;18.60;99.90
28614;DHT22;15806;53.548;9.964;2022-12-08T07:29:06;17.60;99.90
28614;DHT22;15806;53.548;9.964;2022-12-08T07:30:47;18.60;99.90
28614;DHT22;15806;53.548;9.964;2022-12-08T07:32:27;18.60;99.90
28614;DHT22;15806;53.548;9.964;2022-12-08T07:34:10;17.70;99.90
28614;DHT22;15806;53.548;9.964;2022-12-08T07:35:59;18.70;99.90
28614;DHT22;15806;53.548;9.964;2022-12-08T07:37:40;17.90;99.90
28614;DHT22;15806;53.548;9.964;2022-12-08T07:39:20;18.20;99.90
28614;DHT22;15806;53.548;9.964;2022-12-08T07:41:01;18.40;99.90
28614;DHT22;15806;53.548;9.964;2022-12-08T07:42:41;18.80;99.90
28614;DHT22;15806;53.548;9.964;2022-12-08T07:44:24;17.80;99.90
28614;DHT22;15806;53.548;9.964;2022-12-08T07:46:04;18.50;99.90
28614;DHT22;15806;53.548;9.964;2022-12-08T07:47:45;17.70;99.90
28614;DHT22;15806;53.548;9.964;2022-12-08T07:49:25;18.80;99.90
28614;DHT22;15806;53.548;9.964;2022-12-08T07:51:06;18.60;99.90
28614;DHT22;15806;53.548;9.964;2022-12-08T07:52:47;17.90;99.90
28614;DHT22;15806;53.548;9.964;2022-12-08T07:54:28;18.80;99.90
28614;DHT22;15806;53.548;9.964;2022-12-08T07:56:11;18.20;99.90
28614;DHT22;15806;53.548;9.964;2022-12-08T07:57:51;18.80;99.90
28614;DHT22;15806;53.548;9.964;2022-12-08T07:59:32;18.20;99.90
28614;DHT22;15806;53.548;9.964;2022-12-08T08:01:21;17.60;99.90
28614;DHT22;15806;53.548;9.964;2022-12-08T08:03:03;18.70;99.90
28614;DHT22;15806;53.548;9.964;2022-12-08T08:04:43;18.40;99.90
28614;DHT22;15806;53.548;9.964;2022-12-08T08:06:24;18.00;99.90
28614;DHT22;15806;53.548;9.964;2022-12-08T08:08:04;18.80;99.90
28614;DHT22;15806;53.548;9.964;2022-12-08T08:09:45;17.80;99.90
28614;DHT22;15806;53.548;9.964;2022-12-08T08:11:25;17.80;99.90
28614;DHT22;15806;53.548;9.964;2022-12-08T08:13:07;18.70;99.90
28614;DHT22;15806;53.548;9.964;2022-12-08T08:14:47;18.00;99.90
28614;DHT22;15806;53.548;9.964;2022-12-08T08:16:28;17.90;99.90
28614;DHT22;15806;53.548;9.964;2022-12-08T08:18:09;19.00;99.90
28614;DHT22;15806;53.548;9.964;2022-12-08T08:19:49;17.80;99.90
28614;DHT22;15806;53.548;9.964;2022-12-08T08:21:30;17.90;99.90
28614;DHT22;15806;53.548;9.964;2022-12-08T08:23:10;18.70;99.90
28614;DHT22;15806;53.548;9.964;2022-12-08T08:24:51;18.90;99.90
28614;DHT22;15806;53.548;9.964;2022-12-08T08:26:32;19.00;99.90
28614;DHT22;15806;53.548;9.964;2022-12-08T08:28:12;18.70;99.90
28614;DHT22;15806;53.548;9.964;2022-12-08T08:29:53;18.00;99.90
28614;DHT22;15806;53.548;9.964;2022-12-08T08:31:34;18.40;99.90
28614;DHT22;15806;53.548;9.964;2022-12-08T08:33:14;18.90;99.90
28614;DHT22;15806;53.548;9.964;2022-12-08T08:34:55;18.30;99.90
28614;DHT22;15806;53.548;9.964;2022-12-08T08:36:35;17.90;99.90
28614;DHT22;15806;53.548;9.964;2022-12-08T08:38:16;18.60;99.90
28614;DHT22;15806;53.548;9.964;2022-12-08T08:39:57;18.00;99.90
28614;DHT22;15806;53.548;9.964;2022-12-08T08:41:44;19.10;99.90
28614;DHT22;15806;53.548;9.964;2022-12-08T08:43:25;18.80;99.90
28614;DHT22;15806;53.548;9.964;2022-12-08T08:45:06;18.20;99.90
28614;DHT22;15806;53.548;9.964;2022-12-08T08:46:46;18.30;99.90
28614;DHT22;15806;53.548;9.964;2022-12-08T08:48:28;18.80;99.90
28614;DHT22;15806;53.548;9.964;2022-12-08T08:50:09;18.60;99.90
28614;DHT22;15806;53.548;9.964;2022-12-08T08:51:50;18.20;99.90
28614;DHT22;15806;53.548;9.964;2022-12-08T08:53:30;18.10;99.90
28614;DHT22;15806;53.548;9.964;2022-12-08T08:55:11;19.00;99.90
28614;DHT22;15806;53.548;9.964;2022-12-08T08:56:51;18.10;99.90
28614;DHT22;15806;53.548;9.964;2022-12-08T08:58:32;19.10;99.90
28614;DHT22;15806;53.548;9.964;2022-12-08T09:00:13;18.10;99.90
28614;DHT22;15806;53.548;9.964;2022-12-08T09:01:54;18.20;99.90
28614;DHT22;15806;53.548;9.964;2022-12-08T09:03:35;18.30;99.90
28614;DHT22;15806;53.548;9.964;2022-12-08T09:05:15;18.20;99.90
28614;DHT22;15806;53.548;9.964;2022-12-08T09:06:56;18.20;99.90
28614;DHT22;15806;53.548;9.964;2022-12-08T09:08:36;18.10;99.90
28614;DHT22;15806;53.548;9.964;2022-12-08T09:10:17;18.40;99.90
28614;DHT22;15806;53.548;9.964;2022-12-08T09:11:58;19.10;99.90
28614;DHT22;15806;53.548;9.964;2022-12-08T09:13:38;18.40;99.90
28614;DHT22;15806;53.548;9.964;2022-12-08T09:15:19;18.20;99.90
28614;DHT22;15806;53.548;9.964;2022-12-08T09:17:02;18.40;99.90
28614;DHT22;15806;53.548;9.964;2022-12-08T09:18:42;18.40;99.90
28614;DHT22;15806;53.548;9.964;2022-12-08T09:20:23;19.20;99.90
28614;DHT22;15806;53.548;9.964;2022-12-08T09:22:04;18.20;99.90
28614;DHT22;15806;53.548;9.964;2022-12-08T09:23:44;18.60;99.90
28614;DHT22;15806;53.548;9.964;2022-12-08T09:25:25;18.10;99.90
28614;DHT22;15806;53.548;9.964;2022-12-08T09:27:05;18.80;99.90
28614;DHT22;15806;53.548;9.964;2022-12-08T09:28:46;19.00;99.90
28614;DHT22;15806;53.548;9.964;2022-12-08T09:30:27;18.80;99.90
28614;DHT22;15806;53.548;9.964;2022-12-08T09:32:07;19.00;99.90
28614;DHT22;15806;53.548;9.964;2022-12-08T09:33:49;18.20;99.90
28614;DHT22;15806;53.548;9.964;2022-12-08T09:35:29;18.30;99.90
28614;DHT22;15806;53.548;9.964;2022-12-08T09:37:10;18.60;99.90
28614;DHT22;15806;53.548;9.964;2022-12-08T09:38:50;18.40;99.90
28614;DHT22;15806;53.548;9.964;2022-12-08T09:40:36;18.50;99.90
28614;DHT22;15806;53.548;9.964;2022-12-08T09:42:29;18.10;99.90
28614;DHT22;15806;53.548;9.964;2022-12-08T09:44:22;18.50;99.90
28614;DHT22;15806;53.548;9.964;2022-12-08T09:46:09;17.60;99.90
28614;DHT22;15806;53.548;9.964;2022-12-08T09:48:11;18.40;99.90
28614;DHT22;15806;53.548;9.964;2022-12-08T09:51:51;18.40;99.90
28614;DHT22;15806;53.548;9.964;2022-12-08T09:54:05;18.50;99.90
28614;DHT22;15806;53.548;9.964;2022-12-08T09:55:55;17.70;99.90
28614;DHT22;15806;53.548;9.964;2022-12-08T09:57:37;17.70;99.90
28614;DHT22;15806;53.548;9.964;2022-12-08T09:59:29;18.60;99.90
28614;DHT22;15806;53.548;9.964;2022-12-08T10:01:11;18.50;99.90
28614;DHT22;15806;53.548;9.964;2022-12-08T10:02:51;18.20;99.90
28614;DHT22;15806;53.548;9.964;2022-12-08T10:04:36;18.40;99.90
28614;DHT22;15806;53.548;9.964;2022-12-08T10:06:40;18.40;99.90
28614;DHT22;15806;53.548;9.964;2022-12-08T10:08:24;18.60;99.90
28614;DHT22;15806;53.548;9.964;2022-12-08T10:10:41;18.60;99.90
28614;DHT22;15806;53.548;9.964;2022-12-08T10:16:28;18.70;99.90
28614;DHT22;15806;53.548;9.964;2022-12-08T10:18:23;18.70;99.90
28614;DHT22;15806;53.548;9.964;2022-12-08T10:20:21;18.90;99.90
28614;DHT22;15806;53.548;9.964;2022-12-08T10:22:19;19.20;99.90
28614;DHT22;15806;53.548;9.964;2022-12-08T10:24:30;19.20;99.90
28614;DHT22;15806;53.548;9.964;2022-12-08T10:26:16;18.60;99.90
28614;DHT22;15806;53.548;9.964;2022-12-08T10:27:57;19.20;99.90
28614;DHT22;15806;53.548;9.964;2022-12-08T10:29:39;19.00;99.90
28614;DHT22;15806;53.548;9.964;2022-12-08T10:31:22;19.30;99.90
28614;DHT22;15806;53.548;9.964;2022-12-08T10:33:03;19.20;99.90
28614;DHT22;15806;53.548;9.964;2022-12-08T10:35:08;18.90;99.90
28614;DHT22;15806;53.548;9.964;2022-12-08T10:36:57;18.30;99.90
28614;DHT22;15806;53.548;9.964;2022-12-08T10:38:39;19.10;99.90
28614;DHT22;15806;53.548;9.964;2022-12-08T10:40:20;18.60;99.90
28614;DHT22;15806;53.548;9.964;2022-12-08T10:44:00;18.60;99.90
28614;DHT22;15806;53.548;9.964;2022-12-08T10:45:41;18.50;99.90
28614;DHT22;15806;53.548;9.964;2022-12-08T10:47:23;18.50;99.90
28614;DHT22;15806;53.548;9.964;2022-12-08T10:50:55;19.00;99.90
28614;DHT22;15806;53.548;9.964;2022-12-08T10:52:40;18.80;99.90
28614;DHT22;15806;53.548;9.964;2022-12-08T10:54:31;18.70;99.90
28614;DHT22;15806;53.548;9.964;2022-12-08T10:56:16;18.20;99.90
28614;DHT22;15806;53.548;9.964;2022-12-08T10:57:56;18.00;99.90
28614;DHT22;15806;53.548;9.964;2022-12-08T10:59:41;18.50;99.90
28614;DHT22;15806;53.548;9.964;2022-12-08T11:01:31;18.40;99.90
28614;DHT22;15806;53.548;9.964;2022-12-08T11:03:27;18.00;99.90
28614;DHT22;15806;53.548;9.964;2022-12-08T11:05:15;18.50;99.90
28614;DHT22;15806;53.548;9.964;2022-12-08T11:06:56;18.50;99.90
28614;DHT22;15806;53.548;9.964;2022-12-08T11:08:52;18.00;99.90
28614;DHT22;15806;53.548;9.964;2022-12-08T11:10:35;18.20;99.90
28614;DHT22;15806;53.548;9.964;2022-12-08T11:12:18;18.00;99.90
28614;DHT22;15806;53.548;9.964;2022-12-08T11:14:06;18.40;99.90
28614;DHT22;15806;53.548;9.964;2022-12-08T11:15:47;18.50;99.90
28614;DHT22;15806;53.548;9.964;2022-12-08T11:17:35;18.20;99.90
28614;DHT22;15806;53.548;9.964;2022-12-08T11:19:17;18.00;99.90
28614;DHT22;15806;53.548;9.964;2022-12-08T11:21:10;18.00;99.90
28614;DHT22;15806;53.548;9.964;2022-12-08T11:22:54;18.10;99.90
28614;DHT22;15806;53.548;9.964;2022-12-08T11:24:36;18.00;99.90
28614;DHT22;15806;53.548;9.964;2022-12-08T11:26:28;18.30;99.90
28614;DHT22;15806;53.548;9.964;2022-12-08T11:28:10;18.50;99.90
28614;DHT22;15806;53.548;9.964;2022-12-08T11:29:51;18.40;99.90
28614;DHT22;15806;53.548;9.964;2022-12-08T11:31:34;18.00;99.90